Jennifer Turecamo — WDD4175 — position and weather

sailwx.info

Track history (hours):
 
Tides and Currents Weather Stations Pressure Air Temp Water Temp Dewpoint Dewpoint Depression Visibility Wind Speed Wind Dir Waves Ship Positions

Jennifer Turecamo

Owner: MORAN TOWING CORPORATION, New Canaan, CT. More information available from US FCC via Universal Licensing System and Coast Guard Vessel Documentation Center.

Last reported at 2018-Apr-18 12:36 UTC. Time now 2018-Apr-22 18:14 UTC.
Position N 29°27' W 089°37'.

Length 40 m; draft 5.3 m.

Type: Tow > 200 m length. MMSI: 367141250.

Date/timePositionNaut miles runAvg speedWind from/ knotsBaromVisibWave heightAir tempDewpointWater temp
2018-Apr-18 12:36N 29°27' W 089°37'17 3.8
2018-Apr-18 08:10N 29°18' W 089°22'1 4.2
2018-Apr-18 07:59N 29°17' W 089°21'  
2018-Apr-12 21:13N 25°31' W 080°02'1 5.6
2018-Apr-12 20:59N 25°33' W 080°02'3 5.8
2018-Apr-12 20:30N 25°36' W 080°02'3 6.0
2018-Apr-12 20:00N 25°39' W 080°03'3 5.9
2018-Apr-12 19:30N 25°42' W 080°03'3 5.9
2018-Apr-12 19:01N 25°44' W 080°03'3 5.9
2018-Apr-12 18:30N 25°47' W 080°03'3 6.0
2018-Apr-12 18:01N 25°50' W 080°03'3 6.0
2018-Apr-12 17:31N 25°53' W 080°03'3 5.9
2018-Apr-12 17:01N 25°56' W 080°03'3 6.0
2018-Apr-12 16:31N 25°59' W 080°03'3 6.0
2018-Apr-12 16:00N 26°02' W 080°03'3 6.0
2018-Apr-12 15:30N 26°05' W 080°02'3 6.0
2018-Apr-12 15:00N 26°08' W 080°02'4 7.7
2018-Apr-12 14:31N 26°12' W 080°02'4 7.9
2018-Apr-12 14:01N 26°16' W 080°02'4 7.1
2018-Apr-12 13:30N 26°20' W 080°02'3 6.6
2018-Apr-12 13:01N 26°23' W 080°01'3 6.5
2018-Apr-12 12:30N 26°26' W 080°01'3 6.6
2018-Apr-12 12:00N 26°29' W 080°00'22 6.4
2018-Apr-12 08:35N 26°51' W 079°59'2 5.9
2018-Apr-12 08:17N 26°53' W 079°59'2 7.0
2018-Apr-12 08:01N 26°55' W 079°60'3 6.8
2018-Apr-12 07:30N 26°58' W 079°60'  
Track history (hours):
 
Tides and Currents Weather Stations Pressure Air Temp Water Temp Dewpoint Dewpoint Depression Visibility Wind Speed Wind Dir Waves Ship Positions

Jennifer Turecamo

Owner: MORAN TOWING CORPORATION, New Canaan, CT. More information available from US FCC via Universal Licensing System and Coast Guard Vessel Documentation Center.

Last reported at 2018-Apr-18 12:36 UTC. Time now 2018-Apr-22 18:14 UTC.
Position N 29°27' W 089°37'.

Length 40 m; draft 5.3 m.

Type: Tow > 200 m length. MMSI: 367141250.

Date/timePositionNaut miles runAvg speedWind from/ knotsBaromVisibWave heightAir tempDewpointWater temp
2018-Apr-18 12:36N 29°27' W 089°37'17 3.8
2018-Apr-18 08:10N 29°18' W 089°22'1 4.2
2018-Apr-18 07:59N 29°17' W 089°21'  
2018-Apr-12 21:13N 25°31' W 080°02'1 5.6
2018-Apr-12 20:59N 25°33' W 080°02'3 5.8
2018-Apr-12 20:30N 25°36' W 080°02'3 6.0
2018-Apr-12 20:00N 25°39' W 080°03'3 5.9
2018-Apr-12 19:30N 25°42' W 080°03'3 5.9
2018-Apr-12 19:01N 25°44' W 080°03'3 5.9
2018-Apr-12 18:30N 25°47' W 080°03'3 6.0
2018-Apr-12 18:01N 25°50' W 080°03'3 6.0
2018-Apr-12 17:31N 25°53' W 080°03'3 5.9
2018-Apr-12 17:01N 25°56' W 080°03'3 6.0
2018-Apr-12 16:31N 25°59' W 080°03'3 6.0
2018-Apr-12 16:00N 26°02' W 080°03'3 6.0
2018-Apr-12 15:30N 26°05' W 080°02'3 6.0
2018-Apr-12 15:00N 26°08' W 080°02'4 7.7
2018-Apr-12 14:31N 26°12' W 080°02'4 7.9
2018-Apr-12 14:01N 26°16' W 080°02'4 7.1
2018-Apr-12 13:30N 26°20' W 080°02'3 6.6
2018-Apr-12 13:01N 26°23' W 080°01'3 6.5
2018-Apr-12 12:30N 26°26' W 080°01'3 6.6
2018-Apr-12 12:00N 26°29' W 080°00'22 6.4
2018-Apr-12 08:35N 26°51' W 079°59'2 5.9
2018-Apr-12 08:17N 26°53' W 079°59'2 7.0
2018-Apr-12 08:01N 26°55' W 079°60'3 6.8
2018-Apr-12 07:30N 26°58' W 079°60'  

Dump ship's entire track history